Time;durP1;ratioP1;P1;durP2;ratioP2;P2;SDS_P1;SDS_P2;PMS_P1;PMS_P2;Temp;Humidity;BMP_temperature;BMP_pressure;BME280_temperature;BME280_humidity;BME280_pressure;Samples;Min_cycle;Max_cycle;Signal;HPM_P1;HPM_P2
2023/10/09 00:02:09;;;;;;;1.08;0.35;;;14.90;62.60;;;;;;5031081;28;20041;-70
2023/10/09 00:07:02;;;;;;;;;;;14.80;62.20;;;;;;5032429;28;20037;-70
2023/10/09 00:09:32;;;;;;;0.73;0.63;;;14.70;62.30;;;;;;5032230;28;20354;-70
2023/10/09 00:12:00;;;;;;;0.10;0.10;;;14.60;62.20;;;;;;5029656;28;20037;-70
2023/10/09 00:14:34;;;;;;;0.30;0.30;;;14.50;61.90;;;;;;5014403;28;20045;-70
2023/10/09 00:17:18;;;;;;;0.43;0.30;;;14.60;62.50;;;;;;5014489;28;20079;-70
2023/10/09 00:20:17;;;;;;;0.63;0.32;;;14.60;62.60;;;;;;5031045;28;20053;-70
2023/10/09 00:22:46;;;;;;;0.20;0.20;;;14.50;62.80;;;;;;5031448;28;20088;-70
2023/10/09 00:25:14;;;;;;;0.10;0.10;;;14.50;63.00;;;;;;5031287;28;20037;-70
2023/10/09 00:27:43;;;;;;;0.00;0.00;;;14.50;62.70;;;;;;5031725;28;20068;-71
2023/10/09 00:30:30;;;;;;;0.10;0.10;;;14.50;63.10;;;;;;5030682;28;20033;-71
2023/10/09 00:38:20;;;;;;;0.17;0.10;;;14.40;63.30;;;;;;5035855;28;20390;-70
2023/10/09 00:40:56;;;;;;;0.10;0.10;;;14.40;63.30;;;;;;5033683;28;20445;-70
2023/10/09 00:43:29;;;;;;;0.20;0.20;;;14.30;63.00;;;;;;5035405;28;20042;-70
2023/10/09 00:46:23;;;;;;;0.90;0.63;;;14.30;63.60;;;;;;5035222;28;20072;-70
2023/10/09 00:49:10;;;;;;;0.65;0.20;;;14.20;63.50;;;;;;5034411;28;20118;-70
2023/10/09 00:51:56;;;;;;;1.65;0.80;;;14.10;63.00;;;;;;5034299;28;20406;-70
2023/10/09 00:54:26;;;;;;;0.10;0.10;;;14.10;63.90;;;;;;5018807;28;20569;-70
2023/10/09 00:56:58;;;;;;;0.10;0.10;;;14.00;64.30;;;;;;5033647;28;20470;-70
2023/10/09 00:59:25;;;;;;;0.10;0.10;;;13.90;63.80;;;;;;5018503;28;20042;-70
2023/10/09 01:02:04;;;;;;;0.52;0.30;;;13.90;64.40;;;;;;5016585;28;20383;-70
2023/10/09 01:04:36;;;;;;;0.20;0.20;;;13.90;64.60;;;;;;5035402;28;20048;-70
2023/10/09 01:07:21;;;;;;;0.20;0.15;;;13.90;64.00;;;;;;5034675;28;20138;-70
2023/10/09 01:09:50;;;;;;;0.10;0.10;;;13.80;64.40;;;;;;5035577;28;20053;-70
2023/10/09 01:12:19;;;;;;;0.22;0.17;;;13.80;64.60;;;;;;5033047;28;20038;-70
2023/10/09 01:14:55;;;;;;;0.55;0.40;;;13.80;64.50;;;;;;5035229;28;20073;-70
2023/10/09 01:17:35;;;;;;;0.10;0.10;;;13.70;64.70;;;;;;5017934;28;20582;-70
2023/10/09 01:20:16;;;;;;;0.10;0.10;;;13.70;64.80;;;;;;5035272;28;20067;-70
2023/10/09 01:22:43;;;;;;;0.10;0.10;;;13.60;64.80;;;;;;5018575;28;20053;-70
2023/10/09 01:25:10;;;;;;;0.10;0.10;;;13.60;64.80;;;;;;5016904;28;20037;-70
2023/10/09 01:27:40;;;;;;;0.10;0.10;;;13.60;65.00;;;;;;5034866;28;20037;-70
2023/10/09 01:30:13;;;;;;;0.10;0.10;;;13.50;65.00;;;;;;5032749;28;20045;-71
2023/10/09 01:32:40;;;;;;;0.10;0.10;;;13.50;65.10;;;;;;5017821;28;20449;-70
2023/10/09 01:35:21;;;;;;;0.15;0.15;;;13.40;65.10;;;;;;5016555;28;20042;-70
2023/10/09 01:37:50;;;;;;;0.10;0.10;;;13.40;64.70;;;;;;5018951;28;20073;-69
2023/10/09 01:40:27;;;;;;;0.10;0.10;;;13.40;64.80;;;;;;5033531;28;20096;-70
2023/10/09 01:42:54;;;;;;;0.20;0.20;;;13.50;65.70;;;;;;5033451;28;20029;-69
2023/10/09 01:47:51;;;;;;;0.65;0.55;;;13.50;65.50;;;;;;5034357;28;20425;-70
2023/10/09 01:50:22;;;;;;;0.52;0.45;;;13.60;65.40;;;;;;5032113;28;20045;-70
2023/10/09 01:52:48;;;;;;;0.10;0.10;;;13.60;65.40;;;;;;5034378;28;20556;-70
2023/10/09 01:55:28;;;;;;;0.47;0.30;;;13.60;65.30;;;;;;5032637;28;20049;-70
2023/10/09 01:57:57;;;;;;;0.10;0.10;;;13.60;65.20;;;;;;5033203;28;20040;-70
2023/10/09 02:00:28;;;;;;;0.10;0.10;;;13.60;64.40;;;;;;5015916;28;20057;-70
2023/10/09 02:02:54;;;;;;;0.10;0.10;;;13.70;64.30;;;;;;5017036;28;20033;-70
2023/10/09 02:07:52;;;;;;;0.10;0.10;;;13.70;65.10;;;;;;5016289;28;20003;-70
2023/10/09 02:10:25;;;;;;;0.30;0.30;;;13.70;65.10;;;;;;5033165;28;20437;-70
2023/10/09 02:12:57;;;;;;;0.38;0.38;;;13.60;65.10;;;;;;5033928;28;20033;-70
2023/10/09 02:18:18;;;;;;;0.10;0.10;;;13.60;65.30;;;;;;5033897;28;20490;-70
2023/10/09 02:20:46;;;;;;;0.20;0.20;;;13.50;65.20;;;;;;5031699;28;20541;-70
2023/10/09 02:23:13;;;;;;;0.10;0.10;;;13.40;65.60;;;;;;5015925;28;20052;-70
2023/10/09 02:28:32;;;;;;;1.45;0.55;;;13.40;65.80;;;;;;5033783;28;20057;-70
2023/10/09 02:31:01;;;;;;;0.10;0.10;;;13.40;65.50;;;;;;5031511;28;20041;-70
2023/10/09 02:33:27;;;;;;;0.20;0.20;;;13.40;65.00;;;;;;4999556;28;20034;-70
2023/10/09 02:35:54;;;;;;;;;;;13.30;65.70;;;;;;5015782;28;20079;-70
2023/10/09 02:38:23;;;;;;;0.38;0.15;;;13.30;65.20;;;;;;5033450;28;19921;-70
2023/10/09 02:43:50;;;;;;;0.20;0.20;;;13.20;64.90;;;;;;5033538;28;20355;-70
2023/10/09 02:46:19;;;;;;;0.10;0.10;;;13.20;65.70;;;;;;5032872;28;20041;-70
2023/10/09 02:48:58;;;;;;;0.10;0.10;;;13.10;65.80;;;;;;5033420;28;20091;-70
2023/10/09 02:51:45;;;;;;;0.10;0.10;;;13.20;65.70;;;;;;5014508;28;20084;-70
2023/10/09 02:56:58;;;;;;;0.10;0.10;;;13.10;66.30;;;;;;5032271;28;20036;-70
2023/10/09 02:59:24;;;;;;;0.15;0.15;;;13.10;66.20;;;;;;5033294;28;20033;-70
2023/10/09 03:01:52;;;;;;;0.20;0.20;;;13.00;65.40;;;;;;5031943;28;20447;-70
2023/10/09 03:04:19;;;;;;;0.10;0.10;;;13.10;66.30;;;;;;5031905;28;20045;-70
2023/10/09 03:06:51;;;;;;;0.10;0.10;;;13.10;65.80;;;;;;5014828;28;20116;-69
2023/10/09 03:09:28;;;;;;;0.30;0.20;;;13.10;66.40;;;;;;5031770;28;20052;-70
2023/10/09 03:14:43;;;;;;;0.10;0.10;;;13.10;66.50;;;;;;5017892;28;20044;-70
2023/10/09 03:17:12;;;;;;;;;;;13.00;67.10;;;;;;5014918;28;20120;-70
2023/10/09 03:19:38;;;;;;;0.30;0.30;;;13.00;67.10;;;;;;5015449;28;20006;-70
2023/10/09 03:22:24;;;;;;;0.73;0.47;;;12.90;67.40;;;;;;5014240;28;20067;-70
2023/10/09 03:24:52;;;;;;;0.10;0.10;;;12.80;67.20;;;;;;5011669;28;20657;-70
2023/10/09 03:27:18;;;;;;;0.38;0.25;;;12.90;67.40;;;;;;5011157;28;20479;-70
2023/10/09 03:29:49;;;;;;;0.38;0.20;;;12.90;67.30;;;;;;5011619;28;20042;-70
2023/10/09 03:32:15;;;;;;;0.10;0.10;;;12.90;67.40;;;;;;5010632;28;20037;-70
2023/10/09 03:34:43;;;;;;;0.30;0.30;;;13.00;67.30;;;;;;5011554;28;20402;-70
2023/10/09 03:37:20;;;;;;;0.35;0.28;;;13.00;67.20;;;;;;5012067;28;20034;-70
2023/10/09 03:39:54;;;;;;;0.10;0.10;;;13.00;67.10;;;;;;5011522;28;20049;-70
2023/10/09 03:42:22;;;;;;;0.10;0.10;;;13.00;67.00;;;;;;5011497;28;20069;-70
2023/10/09 03:44:53;;;;;;;0.25;0.20;;;13.00;67.30;;;;;;4994916;28;20053;-70
2023/10/09 03:50:23;;;;;;;2.78;0.90;;;13.10;67.00;;;;;;5011698;28;20050;-70
2023/10/09 03:52:50;;;;;;;1.45;0.55;;;13.00;66.40;;;;;;5012363;28;20026;-70
2023/10/09 03:55:16;;;;;;;0.10;0.10;;;13.00;67.40;;;;;;4994410;28;20033;-70
2023/10/09 03:57:45;;;;;;;0.20;0.20;;;12.90;67.70;;;;;;4994676;28;20030;-70
2023/10/09 04:00:15;;;;;;;1.27;0.90;;;12.80;67.70;;;;;;4993727;28;20033;-70
2023/10/09 04:02:42;;;;;;;0.10;0.10;;;12.80;67.20;;;;;;4994498;28;20057;-70
2023/10/09 04:05:08;;;;;;;0.10;0.10;;;12.70;68.10;;;;;;5010669;28;20057;-70
2023/10/09 04:07:34;;;;;;;0.10;0.10;;;12.70;67.70;;;;;;5011322;28;20034;-70
2023/10/09 04:10:32;;;;;;;1.55;0.28;;;12.70;68.20;;;;;;4994754;28;20100;-70
2023/10/09 04:12:52;;;;;;;0.10;0.10;;;12.70;67.70;;;;;;5011848;28;20042;-70
2023/10/09 04:15:23;;;;;;;0.30;0.30;;;12.70;68.40;;;;;;5011513;28;20376;-70
2023/10/09 04:17:51;;;;;;;0.10;0.10;;;12.70;68.50;;;;;;5012425;28;20431;-70
2023/10/09 04:23:16;;;;;;;0.10;0.10;;;12.70;68.60;;;;;;5012053;28;20092;-70
2023/10/09 04:25:41;;;;;;;0.20;0.20;;;12.70;68.40;;;;;;5011348;28;20553;-70
2023/10/09 04:30:55;;;;;;;0.10;0.10;;;12.70;68.20;;;;;;4994482;28;20038;-70
2023/10/09 04:44:19;;;;;;;0.10;0.10;;;12.80;68.30;;;;;;5031831;28;20048;-70
2023/10/09 04:49:34;;;;;;;0.25;0.20;;;12.70;68.40;;;;;;5013339;28;20053;-70
2023/10/09 04:52:17;;;;;;;0.10;0.10;;;12.70;68.60;;;;;;5030216;28;20461;-70
2023/10/09 04:57:29;;;;;;;1.95;0.77;;;12.70;68.60;;;;;;5016262;28;20609;-70
2023/10/09 04:59:58;;;;;;;1.25;0.70;;;12.70;68.50;;;;;;5013923;28;20030;-71
2023/10/09 05:02:25;;;;;;;7.03;1.48;;;12.60;68.60;;;;;;5013266;28;20057;-70
2023/10/09 05:05:47;;;;;;;1.55;1.05;;;12.70;68.90;;;;;;5013902;28;20041;-70
2023/10/09 05:07:55;;;;;;;3.03;0.65;;;12.60;68.90;;;;;;5016963;28;20059;-70
2023/10/09 05:10:25;;;;;;;0.47;0.40;;;12.60;68.80;;;;;;5012591;28;20486;-71
2023/10/09 05:15:36;;;;;;;0.20;0.17;;;12.50;67.80;;;;;;5030782;28;20080;-70
2023/10/09 05:18:09;;;;;;;0.47;0.32;;;12.50;68.30;;;;;;5031408;28;20030;-70
2023/10/09 05:23:26;;;;;;;0.45;0.20;;;12.40;67.70;;;;;;5044033;28;20195;-70
2023/10/09 05:28:52;;;;;;;0.70;0.28;;;12.40;68.60;;;;;;5040332;28;20040;-70
2023/10/09 05:31:44;;;;;;;0.85;0.50;;;12.40;68.70;;;;;;5053712;28;20045;-70
2023/10/09 05:34:19;;;;;;;0.88;0.50;;;12.40;68.60;;;;;;5054520;28;20041;-70
2023/10/09 05:36:47;;;;;;;2.55;1.10;;;12.50;68.80;;;;;;5054041;28;20044;-70
2023/10/09 05:39:18;;;;;;;1.10;0.80;;;12.50;68.80;;;;;;5036576;28;20546;-70
2023/10/09 05:41:47;;;;;;;2.20;0.88;;;12.60;68.20;;;;;;5053504;28;20409;-70
2023/10/09 05:49:46;;;;;;;1.50;1.05;;;12.70;68.90;;;;;;5054719;28;20040;-70
2023/10/09 05:55:49;;;;;;;0.10;0.10;;;12.70;68.70;;;;;;5041107;28;20052;-70
2023/10/09 06:06:45;;;;;;;1.20;1.00;;;12.90;68.80;;;;;;5041541;28;20049;-70
2023/10/09 06:11:42;;;;;;;0.55;0.32;;;13.00;68.60;;;;;;5035344;28;20036;-69
2023/10/09 06:17:23;;;;;;;0.45;0.28;;;13.00;68.70;;;;;;5035281;28;20033;-70
2023/10/09 06:19:48;;;;;;;0.10;0.10;;;13.10;68.60;;;;;;5040076;28;20049;-70
2023/10/09 06:24:57;;;;;;;0.28;0.20;;;13.20;68.70;;;;;;5038088;28;20490;-70
2023/10/09 06:30:24;;;;;;;0.30;0.20;;;13.20;68.50;;;;;;5053664;28;20136;-70
2023/10/09 06:32:53;;;;;;;0.60;0.30;;;13.30;68.50;;;;;;5052871;28;20041;-70
2023/10/09 06:35:22;;;;;;;0.10;0.10;;;13.30;68.50;;;;;;5035494;28;20468;-70
2023/10/09 06:48:57;;;;;;;0.57;0.43;;;13.60;68.50;;;;;;5053080;28;20117;-70
2023/10/09 06:54:15;;;;;;;0.30;0.30;;;13.70;68.60;;;;;;5053331;28;20049;-70
2023/10/09 06:59:41;;;;;;;0.28;0.22;;;13.80;67.90;;;;;;5052676;28;20321;-70
2023/10/09 07:02:45;;;;;;;0.10;0.10;;;13.90;67.70;;;;;;5051946;28;20037;-70
2023/10/09 07:05:10;;;;;;;0.32;0.20;;;13.90;67.60;;;;;;5053235;28;20382;-70
2023/10/09 07:07:47;;;;;;;0.55;0.20;;;14.10;67.00;;;;;;5052660;28;20037;-70
2023/10/09 07:10:29;;;;;;;0.13;0.10;;;14.20;66.40;;;;;;5051444;28;20045;-70
2023/10/09 07:12:57;;;;;;;0.10;0.10;;;14.20;66.30;;;;;;5052795;28;20108;-70
2023/10/09 07:18:23;;;;;;;0.10;0.10;;;14.40;64.50;;;;;;5052612;28;20514;-70
2023/10/09 07:21:11;;;;;;;0.17;0.17;;;14.40;64.10;;;;;;5050469;28;20037;-70
2023/10/09 07:23:47;;;;;;;0.10;0.10;;;14.50;63.30;;;;;;5064195;28;20080;-69
2023/10/09 07:26:25;;;;;;;0.25;0.20;;;14.60;62.30;;;;;;5054222;28;20032;-70
2023/10/09 07:29:00;;;;;;;0.10;0.10;;;14.70;62.20;;;;;;5056309;28;20105;-70
2023/10/09 07:31:39;;;;;;;0.60;0.38;;;14.80;62.40;;;;;;5071454;28;20049;-70
2023/10/09 07:34:30;;;;;;;0.28;0.20;;;14.90;61.40;;;;;;5039780;28;20044;-70
2023/10/09 07:36:56;;;;;;;0.10;0.10;;;15.00;61.20;;;;;;5056726;28;20033;-70
2023/10/09 07:39:22;;;;;;;0.25;0.25;;;15.20;60.50;;;;;;5055214;28;20033;-70
2023/10/09 07:44:36;;;;;;;2.28;0.88;;;15.40;58.30;;;;;;5072430;28;20051;-70
2023/10/09 07:49:51;;;;;;;0.40;0.40;;;15.70;57.80;;;;;;5072484;28;20067;-70
2023/10/09 07:52:18;;;;;;;1.13;0.57;;;16.70;55.10;;;;;;5036885;28;20474;-70
2023/10/09 07:57:38;;;;;;;0.40;0.20;;;19.10;49.20;;;;;;5071733;28;20036;-70
2023/10/09 08:00:12;;;;;;;0.32;0.28;;;20.10;46.20;;;;;;5038293;28;20037;-70
2023/10/09 08:02:38;;;;;;;0.73;0.30;;;21.00;44.10;;;;;;5055090;28;20082;-70
2023/10/09 08:08:16;;;;;;;0.20;0.20;;;22.60;39.20;;;;;;5071960;28;20041;-69
2023/10/09 08:16:20;;;;;;;0.13;0.13;;;24.80;34.10;;;;;;5051666;28;20083;-70
2023/10/09 08:18:46;;;;;;;0.20;0.20;;;25.30;32.60;;;;;;5035350;28;20060;-70
2023/10/09 08:23:53;;;;;;;;;;;26.10;30.80;;;;;;5040831;28;20076;-70
2023/10/09 08:26:28;;;;;;;0.47;0.47;;;26.70;30.30;;;;;;5011896;28;20153;-69
2023/10/09 08:31:46;;;;;;;0.77;0.40;;;27.60;27.80;;;;;;5009705;28;20088;-70
2023/10/09 08:34:35;;;;;;;0.75;0.20;;;28.20;27.40;;;;;;5015147;28;20103;-70
2023/10/09 08:37:00;;;;;;;0.38;0.30;;;28.60;26.40;;;;;;5016458;28;20540;-71
2023/10/09 08:39:26;;;;;;;0.10;0.10;;;29.20;26.20;;;;;;4997704;28;20504;-70
2023/10/09 08:41:57;;;;;;;3.83;1.75;;;29.70;25.10;;;;;;5012809;28;20494;-70
2023/10/09 08:44:26;;;;;;;0.52;0.35;;;30.20;24.40;;;;;;5030723;28;20046;-70
2023/10/09 08:46:55;;;;;;;0.43;0.43;;;30.70;23.50;;;;;;5030961;28;20072;-71
2023/10/09 08:49:21;;;;;;;0.30;0.30;;;31.20;23.30;;;;;;5031790;28;20376;-71
2023/10/09 08:51:48;;;;;;;0.20;0.20;;;31.40;23.00;;;;;;5012995;28;20495;-70
2023/10/09 08:54:14;;;;;;;0.20;0.20;;;31.60;22.50;;;;;;5014946;28;20128;-70
2023/10/09 08:56:51;;;;;;;0.40;0.40;;;32.00;22.60;;;;;;5034734;28;20034;-71
2023/10/09 08:59:18;;;;;;;;;;;32.40;21.60;;;;;;5031527;28;20498;-70
2023/10/09 09:02:05;;;;;;;0.38;0.38;;;32.60;20.20;;;;;;5034052;28;20278;-70
2023/10/09 09:04:50;;;;;;;0.38;0.30;;;32.70;20.60;;;;;;5035638;28;20060;-70
2023/10/09 09:07:39;;;;;;;0.20;0.20;;;33.20;20.50;;;;;;5017132;28;20087;-70
2023/10/09 09:10:17;;;;;;;0.20;0.20;;;33.30;20.10;;;;;;5034488;28;20114;-70
2023/10/09 09:12:44;;;;;;;0.30;0.30;;;33.20;19.30;;;;;;5035391;28;20030;-70
2023/10/09 09:15:29;;;;;;;0.30;0.30;;;31.40;21.10;;;;;;5000331;28;20036;-70
2023/10/09 09:18:18;;;;;;;0.20;0.20;;;29.60;22.50;;;;;;5017083;28;20120;-70
2023/10/09 09:20:47;;;;;;;0.20;0.20;;;28.60;24.20;;;;;;5016405;28;20037;-71
2023/10/09 09:23:13;;;;;;;0.20;0.20;;;27.70;25.00;;;;;;5034671;28;20394;-70
2023/10/09 09:25:59;;;;;;;0.32;0.22;;;27.00;26.80;;;;;;5034279;28;20029;-71
2023/10/09 09:28:32;;;;;;;0.38;0.20;;;26.40;26.70;;;;;;5034984;28;20490;-70
2023/10/09 09:31:13;;;;;;;0.50;0.50;;;26.00;27.90;;;;;;5033918;28;20124;-71
2023/10/09 09:33:39;;;;;;;0.10;0.10;;;25.70;28.60;;;;;;5034800;28;20509;-70
2023/10/09 09:36:06;;;;;;;0.20;0.20;;;25.30;28.90;;;;;;5016431;28;20055;-70
2023/10/09 09:41:27;;;;;;;0.10;0.10;;;24.50;30.50;;;;;;5033629;28;20045;-70
2023/10/09 09:44:17;;;;;;;0.20;0.20;;;24.10;31.50;;;;;;5017419;28;20417;-70
2023/10/09 09:46:44;;;;;;;1.75;0.52;;;24.00;32.10;;;;;;5017156;28;20034;-71
2023/10/09 09:49:21;;;;;;;0.15;0.15;;;23.80;32.20;;;;;;5016894;28;20034;-70
2023/10/09 09:51:47;;;;;;;0.30;0.30;;;23.80;32.50;;;;;;5033473;28;20046;-70
2023/10/09 09:54:16;;;;;;;0.10;0.10;;;23.60;32.10;;;;;;5016757;28;20037;-70
2023/10/09 09:57:08;;;;;;;0.32;0.32;;;23.50;33.30;;;;;;5033735;28;20041;-70
2023/10/09 09:59:56;;;;;;;0.38;0.20;;;23.50;33.80;;;;;;5017334;28;20120;-70
2023/10/09 10:02:29;;;;;;;0.13;0.13;;;23.40;33.50;;;;;;4999255;28;20099;-70
2023/10/09 10:04:59;;;;;;;0.47;0.28;;;23.30;33.70;;;;;;5016491;28;20385;-70
2023/10/09 10:07:30;;;;;;;0.30;0.20;;;23.30;33.40;;;;;;5015832;28;20029;-70
2023/10/09 10:09:57;;;;;;;3.42;0.43;;;23.30;34.80;;;;;;5034524;28;20029;-71
2023/10/09 10:13:01;;;;;;;0.63;0.50;;;23.40;34.60;;;;;;5031701;28;20087;-70
2023/10/09 10:16:21;;;;;;;0.20;0.20;;;23.30;34.20;;;;;;5033159;28;20049;-70
2023/10/09 10:19:21;;;;;;;0.30;0.30;;;23.20;34.40;;;;;;5018217;28;20048;-70
2023/10/09 10:21:49;;;;;;;0.10;0.10;;;23.40;35.10;;;;;;5017164;28;20107;-70
2023/10/09 10:24:51;;;;;;;0.10;0.10;;;23.60;34.20;;;;;;5016108;28;20037;-70
2023/10/09 10:31:00;;;;;;;0.32;0.32;;;23.50;33.70;;;;;;5051537;28;20049;-70
2023/10/09 10:33:27;;;;;;;0.10;0.10;;;23.40;33.70;;;;;;5052701;28;20037;-70
2023/10/09 10:35:55;;;;;;;0.95;0.38;;;23.20;33.80;;;;;;5035069;28;20036;-70
2023/10/09 10:38:49;;;;;;;0.60;0.30;;;23.10;34.80;;;;;;5035840;28;20398;-70
2023/10/09 10:41:17;;;;;;;1.00;0.75;;;23.00;35.20;;;;;;5035841;28;20567;-70
2023/10/09 10:46:53;;;;;;;0.10;0.10;;;22.80;35.00;;;;;;5052735;28;20040;-70
2023/10/09 10:49:26;;;;;;;1.05;0.85;;;22.80;35.50;;;;;;5035739;28;20037;-70
2023/10/09 10:52:09;;;;;;;0.55;0.40;;;22.80;35.60;;;;;;5034120;28;20483;-70
2023/10/09 10:57:02;;;;;;;;;;;23.00;35.70;;;;;;5051693;28;20033;-70
2023/10/09 10:59:49;;;;;;;0.13;0.13;;;23.00;35.70;;;;;;5034076;28;19990;-69
2023/10/09 11:02:16;;;;;;;;;;;23.00;35.80;;;;;;5035058;28;20055;-70
2023/10/09 11:04:53;;;;;;;0.10;0.10;;;23.00;35.70;;;;;;5035342;28;19928;-70
2023/10/09 11:07:27;;;;;;;4.20;0.60;;;23.00;35.80;;;;;;5052354;28;20470;-70
2023/10/09 11:10:26;;;;;;;0.10;0.10;;;23.10;36.20;;;;;;5035833;28;20037;-70
2023/10/09 11:15:37;;;;;;;;;;;23.10;35.60;;;;;;5035040;28;20366;-70
2023/10/09 11:18:26;;;;;;;0.10;0.10;;;23.10;35.20;;;;;;5052144;28;19962;-70
2023/10/09 11:21:22;;;;;;;0.40;0.25;;;23.30;35.60;;;;;;5034182;28;20037;-70
2023/10/09 11:23:57;;;;;;;0.20;0.10;;;23.40;36.00;;;;;;5038063;28;20067;-70
2023/10/09 11:26:27;;;;;;;1.35;0.43;;;23.50;35.40;;;;;;5051815;28;20029;-70
2023/10/09 11:29:16;;;;;;;1.27;0.30;;;23.90;35.30;;;;;;5035182;28;20462;-70
2023/10/09 11:32:01;;;;;;;0.10;0.10;;;24.10;35.10;;;;;;5034126;28;20037;-70
2023/10/09 11:40:00;;;;;;;0.47;0.23;;;24.50;34.50;;;;;;5037660;28;20505;-70
2023/10/09 11:42:49;;;;;;;0.20;0.20;;;24.60;33.90;;;;;;5033501;28;20789;-70
2023/10/09 11:45:37;;;;;;;0.50;0.50;;;24.60;33.70;;;;;;5033959;28;20092;-70
2023/10/09 11:48:33;;;;;;;0.52;0.47;;;24.70;34.10;;;;;;5035132;28;20041;-70
2023/10/09 11:55:54;;;;;;;0.10;0.10;;;24.80;34.10;;;;;;5034010;28;20037;-70
2023/10/09 12:01:16;;;;;;;0.10;0.10;;;25.00;33.60;;;;;;5036022;28;20047;-70
2023/10/09 12:03:42;;;;;;;0.10;0.10;;;25.30;32.80;;;;;;5034806;28;20136;-70
2023/10/09 12:06:12;;;;;;;1.00;0.50;;;25.80;32.50;;;;;;5033704;28;20040;-70
2023/10/09 12:08:42;;;;;;;0.20;0.20;;;26.00;32.10;;;;;;5051967;28;20041;-70
2023/10/09 12:11:09;;;;;;;0.10;0.10;;;25.90;31.40;;;;;;5033672;28;20048;-70
2023/10/09 12:13:38;;;;;;;0.52;0.50;;;26.00;32.00;;;;;;5017770;28;20052;-70
2023/10/09 12:18:52;;;;;;;0.52;0.20;;;26.20;31.60;;;;;;5036948;28;20044;-70
2023/10/09 12:21:42;;;;;;;0.25;0.25;;;26.10;31.60;;;;;;5050838;28;20071;-70
2023/10/09 12:24:11;;;;;;;0.30;0.30;;;25.90;31.40;;;;;;5051885;28;20183;-70
2023/10/09 12:26:40;;;;;;;0.20;0.20;;;25.80;33.30;;;;;;5033829;28;20029;-70
2023/10/09 12:29:10;;;;;;;0.20;0.20;;;25.70;32.60;;;;;;5052902;28;20390;-70
2023/10/09 12:31:37;;;;;;;1.02;0.82;;;25.70;33.70;;;;;;5037714;28;20044;-70
2023/10/09 12:34:05;;;;;;;0.95;0.30;;;25.60;33.60;;;;;;5038283;28;20053;-70
2023/10/09 12:36:37;;;;;;;0.10;0.10;;;25.70;33.80;;;;;;5053680;28;20447;-70
2023/10/09 12:39:03;;;;;;;0.40;0.28;;;25.80;34.20;;;;;;5038595;28;20551;-70
2023/10/09 12:41:33;;;;;;;0.45;0.40;;;26.40;32.90;;;;;;5054613;28;20040;-70
2023/10/09 12:43:59;;;;;;;0.20;0.20;;;26.80;32.30;;;;;;5063922;28;20447;-70
2023/10/09 12:46:25;;;;;;;1.00;0.20;;;26.60;31.40;;;;;;5074404;28;20465;-70
2023/10/09 12:48:54;;;;;;;0.40;0.40;;;26.50;31.30;;;;;;5039418;28;20036;-70
2023/10/09 12:51:25;;;;;;;0.35;0.30;;;26.80;31.10;;;;;;5017002;28;20379;-70
2023/10/09 12:53:58;;;;;;;0.25;0.25;;;27.30;30.80;;;;;;5025715;28;20066;-70
2023/10/09 12:56:43;;;;;;;0.10;0.10;;;27.40;30.60;;;;;;5037707;28;20033;-70
2023/10/09 12:59:14;;;;;;;0.47;0.47;;;28.60;29.30;;;;;;5054157;28;20048;-70
2023/10/09 13:01:45;;;;;;;0.15;0.15;;;30.50;28.60;;;;;;5037337;28;20037;-70
2023/10/09 13:04:15;;;;;;;0.13;0.10;;;32.70;24.50;;;;;;5055527;28;20482;-70
2023/10/09 13:07:02;;;;;;;0.65;0.45;;;34.40;22.40;;;;;;5037248;28;20037;-71
2023/10/09 13:09:35;;;;;;;0.60;0.45;;;35.50;21.10;;;;;;5055375;28;20040;-70
2023/10/09 13:12:01;;;;;;;0.20;0.20;;;36.90;20.80;;;;;;5035854;28;20044;-70
2023/10/09 13:14:33;;;;;;;0.28;0.28;;;37.80;18.70;;;;;;5055183;28;20478;-70
2023/10/09 13:17:00;;;;;;;0.20;0.20;;;38.60;18.90;;;;;;5037106;28;20040;-71
2023/10/09 13:19:26;;;;;;;0.35;0.35;;;39.30;17.70;;;;;;5054999;28;20098;-70
2023/10/09 13:21:52;;;;;;;2.03;0.50;;;39.30;18.00;;;;;;5052800;28;20037;-71
2023/10/09 13:24:24;;;;;;;0.30;0.30;;;40.00;18.70;;;;;;5020816;28;20060;-70
2023/10/09 13:26:57;;;;;;;0.52;0.43;;;40.00;18.10;;;;;;5036371;28;20516;-70
2023/10/09 13:29:24;;;;;;;2.60;0.65;;;39.00;18.30;;;;;;5053849;28;20079;-70
2023/10/09 13:32:02;;;;;;;0.30;0.30;;;39.60;17.70;;;;;;5053492;28;20037;-70
2023/10/09 13:34:28;;;;;;;0.70;0.68;;;40.10;17.80;;;;;;5055016;28;20047;-70
2023/10/09 13:36:56;;;;;;;0.50;0.50;;;39.20;18.80;;;;;;5054049;28;20052;-71
2023/10/09 13:39:26;;;;;;;0.85;0.70;;;40.10;17.30;;;;;;5054732;28;20037;-70
2023/10/09 13:42:14;;;;;;;6.18;0.50;;;40.90;16.30;;;;;;5036089;28;20365;-71
2023/10/09 13:44:42;;;;;;;0.40;0.40;;;40.10;16.60;;;;;;5036408;28;20176;-71
2023/10/09 13:47:18;;;;;;;1.13;0.50;;;38.60;17.30;;;;;;5053709;28;20453;-70
2023/10/09 13:49:45;;;;;;;0.30;0.30;;;37.70;18.60;;;;;;5054845;28;20041;-71
2023/10/09 13:52:17;;;;;;;0.20;0.20;;;37.50;18.90;;;;;;5053371;28;20052;-71
2023/10/09 13:54:48;;;;;;;0.70;0.45;;;38.60;18.50;;;;;;5020871;28;20068;-70
2023/10/09 13:57:15;;;;;;;1.08;0.68;;;39.60;18.60;;;;;;5036481;28;20095;-71
2023/10/09 13:59:51;;;;;;;0.30;0.30;;;40.20;17.20;;;;;;5036771;28;20033;-71
2023/10/09 14:02:18;;;;;;;0.55;0.55;;;40.40;16.30;;;;;;5051671;28;20428;-71
2023/10/09 14:07:34;;;;;;;1.52;0.90;;;40.10;17.30;;;;;;5032112;28;20104;-71
2023/10/09 14:10:07;;;;;;;1.35;0.90;;;39.90;17.10;;;;;;5054351;28;20075;-70
2023/10/09 14:12:34;;;;;;;0.50;0.50;;;39.90;17.20;;;;;;5035441;28;20037;-71
2023/10/09 14:15:03;;;;;;;0.50;0.50;;;39.90;17.30;;;;;;5054150;28;20041;-71
2023/10/09 14:17:29;;;;;;;0.82;0.82;;;39.80;17.40;;;;;;5036073;28;20116;-71
2023/10/09 14:20:25;;;;;;;0.60;0.60;;;39.70;17.70;;;;;;5054081;28;20041;-71
2023/10/09 14:22:45;;;;;;;0.70;0.70;;;39.60;17.50;;;;;;5034187;28;20056;-70
2023/10/09 14:25:15;;;;;;;0.68;0.68;;;39.60;17.30;;;;;;5033329;28;20038;-70
2023/10/09 14:27:41;;;;;;;0.77;0.68;;;39.80;17.10;;;;;;5034019;28;20485;-70
2023/10/09 14:30:18;;;;;;;1.23;1.13;;;39.80;17.10;;;;;;5032748;28;20037;-71
2023/10/09 14:32:51;;;;;;;0.68;0.68;;;39.60;17.30;;;;;;5033608;28;20120;-71
2023/10/09 14:35:21;;;;;;;2.05;1.25;;;39.40;17.60;;;;;;5016252;28;20060;-71
2023/10/09 14:37:47;;;;;;;1.40;1.30;;;39.20;17.10;;;;;;5033595;28;20407;-71
2023/10/09 14:40:13;;;;;;;0.52;0.52;;;39.20;17.80;;;;;;5014823;28;20095;-71
2023/10/09 14:42:58;;;;;;;0.50;0.50;;;39.10;17.80;;;;;;5033234;28;20030;-70
2023/10/09 14:45:25;;;;;;;0.95;0.95;;;38.80;17.80;;;;;;5032782;28;20041;-71
2023/10/09 14:48:12;;;;;;;0.98;0.95;;;38.70;17.50;;;;;;5033262;28;20550;-71
2023/10/09 14:50:52;;;;;;;0.50;0.50;;;38.00;18.20;;;;;;4997997;28;20101;-71
2023/10/09 14:53:26;;;;;;;0.68;0.65;;;36.60;19.40;;;;;;5015023;28;20363;-71
2023/10/09 14:58:46;;;;;;;0.68;0.68;;;33.70;22.30;;;;;;5013689;28;20041;-70
2023/10/09 15:01:15;;;;;;;0.95;0.77;;;32.70;23.70;;;;;;5020487;28;20033;-71
2023/10/09 15:03:41;;;;;;;0.85;0.63;;;31.80;24.20;;;;;;5033155;28;20042;-70
2023/10/09 15:06:08;;;;;;;1.48;0.98;;;31.20;26.00;;;;;;5032519;28;20467;-70
2023/10/09 15:08:35;;;;;;;0.40;0.40;;;30.60;26.50;;;;;;5015308;28;20446;-71
2023/10/09 15:11:01;;;;;;;2.72;1.75;;;30.10;27.40;;;;;;5014329;28;20037;-71
2023/10/09 15:13:30;;;;;;;1.63;1.15;;;29.70;27.80;;;;;;5032592;28;20370;-70
2023/10/09 15:15:56;;;;;;;0.63;0.40;;;29.20;28.50;;;;;;5015029;28;20044;-70
2023/10/09 15:18:23;;;;;;;1.70;1.15;;;28.80;29.00;;;;;;5015176;28;20053;-70
2023/10/09 15:20:51;;;;;;;4.97;1.33;;;28.40;29.70;;;;;;4997046;28;20087;-71
2023/10/09 15:23:19;;;;;;;0.30;0.30;;;28.00;30.60;;;;;;5041337;28;20091;-70
2023/10/09 15:25:49;;;;;;;2.33;0.75;;;27.60;30.90;;;;;;5034532;28;20040;-70
2023/10/09 15:28:17;;;;;;;0.30;0.30;;;27.40;32.30;;;;;;5052854;28;20095;-70
2023/10/09 15:30:43;;;;;;;0.88;0.38;;;27.00;32.90;;;;;;5051356;28;20090;-71
2023/10/09 15:33:10;;;;;;;0.32;0.32;;;26.80;33.10;;;;;;5052576;28;20064;-70
2023/10/09 15:35:38;;;;;;;0.30;0.30;;;26.60;33.80;;;;;;5050787;28;20037;-71
2023/10/09 15:38:04;;;;;;;0.70;0.60;;;26.30;33.70;;;;;;5052497;28;20029;-70
2023/10/09 15:40:34;;;;;;;0.65;0.65;;;26.10;35.00;;;;;;5033199;28;20046;-70
2023/10/09 15:43:01;;;;;;;0.30;0.30;;;25.60;36.20;;;;;;5050747;28;20044;-70
2023/10/09 15:45:29;;;;;;;0.68;0.40;;;25.40;36.60;;;;;;5050591;28;20116;-70
2023/10/09 15:47:55;;;;;;;0.35;0.35;;;25.30;37.40;;;;;;5050608;28;20056;-70
2023/10/09 15:50:25;;;;;;;0.43;0.30;;;25.00;37.50;;;;;;5049839;28;20033;-71
2023/10/09 15:53:10;;;;;;;0.65;0.57;;;24.90;38.20;;;;;;5050943;28;20027;-70
2023/10/09 15:55:38;;;;;;;0.77;0.52;;;24.60;39.00;;;;;;5050271;28;20091;-70
2023/10/09 15:58:08;;;;;;;0.55;0.47;;;24.40;39.10;;;;;;5052037;28;20033;-70
2023/10/09 16:00:34;;;;;;;0.57;0.57;;;24.30;40.00;;;;;;5050925;28;20045;-70
2023/10/09 16:03:00;;;;;;;0.28;0.28;;;24.00;40.60;;;;;;5050156;28;20037;-70
2023/10/09 16:05:27;;;;;;;0.75;0.52;;;23.90;40.70;;;;;;5049973;28;20033;-70